sensor_id;sensor_type;location;lat;lon;timestamp;P1;durP1;ratioP1;P2;durP2;ratioP2
48209;SDS011;33999;52.252;9.616;2022-08-19T00:02:13;10.05;;;5.35;;
48209;SDS011;33999;52.252;9.616;2022-08-19T00:05:15;7.70;;;4.68;;
48209;SDS011;33999;52.252;9.616;2022-08-19T00:08:17;9.43;;;4.65;;
48209;SDS011;33999;52.252;9.616;2022-08-19T00:11:18;8.55;;;4.50;;
48209;SDS011;33999;52.252;9.616;2022-08-19T00:14:26;8.07;;;4.88;;
48209;SDS011;33999;52.252;9.616;2022-08-19T00:17:28;8.43;;;4.80;;
48209;SDS011;33999;52.252;9.616;2022-08-19T00:20:30;10.85;;;5.25;;
48209;SDS011;33999;52.252;9.616;2022-08-19T00:23:31;10.20;;;5.57;;
48209;SDS011;33999;52.252;9.616;2022-08-19T00:26:36;9.55;;;5.40;;
48209;SDS011;33999;52.252;9.616;2022-08-19T00:29:39;10.75;;;5.30;;
48209;SDS011;33999;52.252;9.616;2022-08-19T00:32:40;8.68;;;5.28;;
48209;SDS011;33999;52.252;9.616;2022-08-19T00:35:42;9.15;;;5.65;;
48209;SDS011;33999;52.252;9.616;2022-08-19T00:38:44;9.23;;;5.60;;
48209;SDS011;33999;52.252;9.616;2022-08-19T00:41:46;7.97;;;5.57;;
48209;SDS011;33999;52.252;9.616;2022-08-19T00:44:50;11.15;;;5.50;;
48209;SDS011;33999;52.252;9.616;2022-08-19T00:47:52;10.60;;;5.88;;
48209;SDS011;33999;52.252;9.616;2022-08-19T00:50:54;9.82;;;6.10;;
48209;SDS011;33999;52.252;9.616;2022-08-19T00:53:57;11.55;;;6.18;;
48209;SDS011;33999;52.252;9.616;2022-08-19T00:57:00;10.63;;;5.95;;
48209;SDS011;33999;52.252;9.616;2022-08-19T01:00:07;11.73;;;6.47;;
48209;SDS011;33999;52.252;9.616;2022-08-19T01:03:14;9.82;;;6.18;;
48209;SDS011;33999;52.252;9.616;2022-08-19T01:06:19;10.15;;;6.38;;
48209;SDS011;33999;52.252;9.616;2022-08-19T01:09:22;10.90;;;6.57;;
48209;SDS011;33999;52.252;9.616;2022-08-19T01:12:23;11.38;;;6.22;;
48209;SDS011;33999;52.252;9.616;2022-08-19T01:15:27;11.57;;;5.90;;
48209;SDS011;33999;52.252;9.616;2022-08-19T01:18:35;9.82;;;5.90;;
48209;SDS011;33999;52.252;9.616;2022-08-19T01:21:42;12.18;;;5.75;;
48209;SDS011;33999;52.252;9.616;2022-08-19T01:24:51;10.65;;;5.78;;
48209;SDS011;33999;52.252;9.616;2022-08-19T01:27:58;9.15;;;5.35;;
48209;SDS011;33999;52.252;9.616;2022-08-19T01:31:16;8.75;;;5.03;;
48209;SDS011;33999;52.252;9.616;2022-08-19T01:34:27;10.02;;;5.40;;
48209;SDS011;33999;52.252;9.616;2022-08-19T01:37:29;8.40;;;5.30;;
48209;SDS011;33999;52.252;9.616;2022-08-19T01:40:42;10.27;;;5.93;;
48209;SDS011;33999;52.252;9.616;2022-08-19T01:43:44;10.23;;;6.00;;
48209;SDS011;33999;52.252;9.616;2022-08-19T01:47:06;10.50;;;6.10;;
48209;SDS011;33999;52.252;9.616;2022-08-19T01:50:09;8.88;;;5.18;;
48209;SDS011;33999;52.252;9.616;2022-08-19T01:53:11;11.50;;;5.85;;
48209;SDS011;33999;52.252;9.616;2022-08-19T01:56:13;10.45;;;5.95;;
48209;SDS011;33999;52.252;9.616;2022-08-19T01:59:16;10.55;;;6.28;;
48209;SDS011;33999;52.252;9.616;2022-08-19T02:02:20;11.52;;;6.03;;
48209;SDS011;33999;52.252;9.616;2022-08-19T02:05:21;8.95;;;5.70;;
48209;SDS011;33999;52.252;9.616;2022-08-19T02:08:23;10.98;;;6.28;;
48209;SDS011;33999;52.252;9.616;2022-08-19T02:11:29;10.13;;;6.07;;
48209;SDS011;33999;52.252;9.616;2022-08-19T02:14:35;10.93;;;6.63;;
48209;SDS011;33999;52.252;9.616;2022-08-19T02:17:37;10.63;;;6.20;;
48209;SDS011;33999;52.252;9.616;2022-08-19T02:20:40;10.02;;;6.25;;
48209;SDS011;33999;52.252;9.616;2022-08-19T02:23:42;11.93;;;7.07;;
48209;SDS011;33999;52.252;9.616;2022-08-19T02:26:44;11.55;;;6.53;;
48209;SDS011;33999;52.252;9.616;2022-08-19T02:29:47;12.60;;;6.78;;
48209;SDS011;33999;52.252;9.616;2022-08-19T02:32:50;12.95;;;7.07;;
48209;SDS011;33999;52.252;9.616;2022-08-19T02:35:52;12.07;;;6.40;;
48209;SDS011;33999;52.252;9.616;2022-08-19T02:38:54;12.70;;;6.60;;
48209;SDS011;33999;52.252;9.616;2022-08-19T02:41:56;10.20;;;5.78;;
48209;SDS011;33999;52.252;9.616;2022-08-19T02:44:58;9.40;;;5.57;;
48209;SDS011;33999;52.252;9.616;2022-08-19T02:48:00;9.88;;;6.03;;
48209;SDS011;33999;52.252;9.616;2022-08-19T02:51:05;10.68;;;6.10;;
48209;SDS011;33999;52.252;9.616;2022-08-19T02:54:08;11.80;;;6.18;;
48209;SDS011;33999;52.252;9.616;2022-08-19T02:57:11;9.45;;;5.55;;
48209;SDS011;33999;52.252;9.616;2022-08-19T03:00:13;12.88;;;6.60;;
48209;SDS011;33999;52.252;9.616;2022-08-19T03:03:15;11.52;;;6.43;;
48209;SDS011;33999;52.252;9.616;2022-08-19T03:06:18;11.52;;;6.20;;
48209;SDS011;33999;52.252;9.616;2022-08-19T03:09:20;11.73;;;6.40;;
48209;SDS011;33999;52.252;9.616;2022-08-19T03:12:22;11.63;;;6.70;;
48209;SDS011;33999;52.252;9.616;2022-08-19T03:15:23;13.07;;;6.78;;
48209;SDS011;33999;52.252;9.616;2022-08-19T03:18:25;13.63;;;6.63;;
48209;SDS011;33999;52.252;9.616;2022-08-19T03:21:29;11.18;;;6.68;;
48209;SDS011;33999;52.252;9.616;2022-08-19T03:24:33;13.07;;;6.73;;
48209;SDS011;33999;52.252;9.616;2022-08-19T03:27:35;13.55;;;6.65;;
48209;SDS011;33999;52.252;9.616;2022-08-19T03:30:37;9.75;;;5.88;;
48209;SDS011;33999;52.252;9.616;2022-08-19T03:33:44;10.05;;;5.70;;
48209;SDS011;33999;52.252;9.616;2022-08-19T03:36:46;14.52;;;6.45;;
48209;SDS011;33999;52.252;9.616;2022-08-19T03:39:48;12.10;;;6.55;;
48209;SDS011;33999;52.252;9.616;2022-08-19T03:42:50;13.95;;;5.90;;
48209;SDS011;33999;52.252;9.616;2022-08-19T03:45:59;9.57;;;5.45;;
48209;SDS011;33999;52.252;9.616;2022-08-19T03:49:06;10.25;;;6.00;;
48209;SDS011;33999;52.252;9.616;2022-08-19T03:52:10;9.48;;;5.57;;
48209;SDS011;33999;52.252;9.616;2022-08-19T03:55:13;8.95;;;5.45;;
48209;SDS011;33999;52.252;9.616;2022-08-19T03:58:15;10.30;;;5.60;;
48209;SDS011;33999;52.252;9.616;2022-08-19T04:01:17;9.60;;;5.95;;
48209;SDS011;33999;52.252;9.616;2022-08-19T04:04:35;10.68;;;5.95;;
48209;SDS011;33999;52.252;9.616;2022-08-19T04:07:38;10.85;;;6.00;;
48209;SDS011;33999;52.252;9.616;2022-08-19T04:10:40;10.43;;;6.03;;
48209;SDS011;33999;52.252;9.616;2022-08-19T04:13:43;8.93;;;5.35;;
48209;SDS011;33999;52.252;9.616;2022-08-19T04:16:46;9.60;;;5.47;;
48209;SDS011;33999;52.252;9.616;2022-08-19T04:19:49;9.15;;;5.90;;
48209;SDS011;33999;52.252;9.616;2022-08-19T04:22:51;12.13;;;6.20;;
48209;SDS011;33999;52.252;9.616;2022-08-19T04:25:53;11.32;;;5.80;;
48209;SDS011;33999;52.252;9.616;2022-08-19T04:28:55;9.73;;;5.38;;
48209;SDS011;33999;52.252;9.616;2022-08-19T04:31:57;9.73;;;5.85;;
48209;SDS011;33999;52.252;9.616;2022-08-19T04:34:59;9.82;;;5.40;;
48209;SDS011;33999;52.252;9.616;2022-08-19T04:38:19;10.40;;;5.95;;
48209;SDS011;33999;52.252;9.616;2022-08-19T04:41:24;10.70;;;6.20;;
48209;SDS011;33999;52.252;9.616;2022-08-19T04:44:45;10.63;;;6.10;;
48209;SDS011;33999;52.252;9.616;2022-08-19T04:47:46;10.45;;;6.10;;
48209;SDS011;33999;52.252;9.616;2022-08-19T04:51:00;9.85;;;5.57;;
48209;SDS011;33999;52.252;9.616;2022-08-19T04:54:02;8.80;;;5.15;;
48209;SDS011;33999;52.252;9.616;2022-08-19T04:57:06;8.38;;;4.90;;
48209;SDS011;33999;52.252;9.616;2022-08-19T05:00:09;8.65;;;4.95;;
48209;SDS011;33999;52.252;9.616;2022-08-19T05:03:12;12.40;;;6.75;;
48209;SDS011;33999;52.252;9.616;2022-08-19T05:06:15;9.77;;;5.60;;
48209;SDS011;33999;52.252;9.616;2022-08-19T05:09:19;10.48;;;5.90;;
48209;SDS011;33999;52.252;9.616;2022-08-19T05:12:22;9.50;;;5.75;;
48209;SDS011;33999;52.252;9.616;2022-08-19T05:15:30;10.13;;;5.80;;
48209;SDS011;33999;52.252;9.616;2022-08-19T05:18:32;9.98;;;4.90;;
48209;SDS011;33999;52.252;9.616;2022-08-19T05:21:52;9.15;;;4.97;;
48209;SDS011;33999;52.252;9.616;2022-08-19T05:25:15;7.93;;;4.53;;
48209;SDS011;33999;52.252;9.616;2022-08-19T05:28:20;9.35;;;5.35;;
48209;SDS011;33999;52.252;9.616;2022-08-19T05:31:22;9.07;;;4.95;;
48209;SDS011;33999;52.252;9.616;2022-08-19T05:34:24;9.57;;;4.82;;
48209;SDS011;33999;52.252;9.616;2022-08-19T05:37:27;8.05;;;5.30;;
48209;SDS011;33999;52.252;9.616;2022-08-19T05:40:29;10.05;;;5.75;;
48209;SDS011;33999;52.252;9.616;2022-08-19T05:43:30;11.35;;;5.72;;
48209;SDS011;33999;52.252;9.616;2022-08-19T05:46:32;9.38;;;5.80;;
48209;SDS011;33999;52.252;9.616;2022-08-19T05:49:34;11.63;;;5.78;;
48209;SDS011;33999;52.252;9.616;2022-08-19T05:52:37;9.00;;;6.40;;
48209;SDS011;33999;52.252;9.616;2022-08-19T05:55:46;10.85;;;6.43;;
48209;SDS011;33999;52.252;9.616;2022-08-19T05:58:47;10.30;;;6.88;;
48209;SDS011;33999;52.252;9.616;2022-08-19T06:01:49;10.75;;;7.13;;
48209;SDS011;33999;52.252;9.616;2022-08-19T06:04:52;11.68;;;7.07;;
48209;SDS011;33999;52.252;9.616;2022-08-19T06:07:54;12.50;;;6.95;;
48209;SDS011;33999;52.252;9.616;2022-08-19T06:10:56;11.35;;;7.00;;
48209;SDS011;33999;52.252;9.616;2022-08-19T06:13:59;12.20;;;6.57;;
48209;SDS011;33999;52.252;9.616;2022-08-19T06:17:03;12.73;;;6.25;;
48209;SDS011;33999;52.252;9.616;2022-08-19T06:20:08;11.20;;;7.00;;
48209;SDS011;33999;52.252;9.616;2022-08-19T06:23:14;11.35;;;6.18;;
48209;SDS011;33999;52.252;9.616;2022-08-19T06:26:17;11.55;;;6.10;;
48209;SDS011;33999;52.252;9.616;2022-08-19T06:29:21;11.93;;;6.28;;
48209;SDS011;33999;52.252;9.616;2022-08-19T06:32:25;13.13;;;7.30;;
48209;SDS011;33999;52.252;9.616;2022-08-19T06:35:27;14.63;;;7.85;;
48209;SDS011;33999;52.252;9.616;2022-08-19T06:38:31;13.38;;;7.43;;
48209;SDS011;33999;52.252;9.616;2022-08-19T06:41:42;13.30;;;7.95;;
48209;SDS011;33999;52.252;9.616;2022-08-19T06:44:51;14.52;;;8.32;;
48209;SDS011;33999;52.252;9.616;2022-08-19T06:47:54;13.85;;;8.30;;
48209;SDS011;33999;52.252;9.616;2022-08-19T06:50:57;15.80;;;9.35;;
48209;SDS011;33999;52.252;9.616;2022-08-19T06:53:59;17.55;;;8.70;;
48209;SDS011;33999;52.252;9.616;2022-08-19T06:57:01;17.30;;;9.50;;
48209;SDS011;33999;52.252;9.616;2022-08-19T07:00:04;14.65;;;8.40;;
48209;SDS011;33999;52.252;9.616;2022-08-19T07:03:13;15.68;;;9.25;;
48209;SDS011;33999;52.252;9.616;2022-08-19T07:06:16;14.75;;;9.00;;
48209;SDS011;33999;52.252;9.616;2022-08-19T07:09:40;14.07;;;8.00;;
48209;SDS011;33999;52.252;9.616;2022-08-19T07:12:51;14.32;;;8.38;;
48209;SDS011;33999;52.252;9.616;2022-08-19T07:15:53;15.73;;;8.38;;
48209;SDS011;33999;52.252;9.616;2022-08-19T07:18:55;15.25;;;8.27;;
48209;SDS011;33999;52.252;9.616;2022-08-19T07:21:58;13.77;;;7.18;;
48209;SDS011;33999;52.252;9.616;2022-08-19T07:25:02;11.60;;;7.05;;
48209;SDS011;33999;52.252;9.616;2022-08-19T07:28:05;14.13;;;7.43;;
48209;SDS011;33999;52.252;9.616;2022-08-19T07:31:24;12.05;;;6.78;;
48209;SDS011;33999;52.252;9.616;2022-08-19T07:34:31;12.18;;;6.72;;
48209;SDS011;33999;52.252;9.616;2022-08-19T07:37:40;10.90;;;6.30;;
48209;SDS011;33999;52.252;9.616;2022-08-19T07:40:45;11.95;;;6.60;;
48209;SDS011;33999;52.252;9.616;2022-08-19T07:43:47;12.00;;;6.47;;
48209;SDS011;33999;52.252;9.616;2022-08-19T07:46:52;13.30;;;7.00;;
48209;SDS011;33999;52.252;9.616;2022-08-19T07:49:57;10.38;;;5.95;;
48209;SDS011;33999;52.252;9.616;2022-08-19T07:52:58;11.65;;;5.90;;
48209;SDS011;33999;52.252;9.616;2022-08-19T07:56:00;10.40;;;6.40;;
48209;SDS011;33999;52.252;9.616;2022-08-19T07:59:03;11.98;;;6.78;;
48209;SDS011;33999;52.252;9.616;2022-08-19T08:02:06;13.32;;;6.63;;
48209;SDS011;33999;52.252;9.616;2022-08-19T08:05:09;13.20;;;6.68;;
48209;SDS011;33999;52.252;9.616;2022-08-19T08:08:30;13.27;;;7.15;;
48209;SDS011;33999;52.252;9.616;2022-08-19T08:11:54;16.40;;;6.75;;
48209;SDS011;33999;52.252;9.616;2022-08-19T08:15:31;11.05;;;6.90;;
48209;SDS011;33999;52.252;9.616;2022-08-19T08:18:33;11.52;;;5.65;;
48209;SDS011;33999;52.252;9.616;2022-08-19T08:21:42;11.65;;;6.25;;
48209;SDS011;33999;52.252;9.616;2022-08-19T08:24:44;9.88;;;5.63;;
48209;SDS011;33999;52.252;9.616;2022-08-19T08:27:46;8.98;;;5.18;;
48209;SDS011;33999;52.252;9.616;2022-08-19T08:30:51;12.35;;;6.32;;
48209;SDS011;33999;52.252;9.616;2022-08-19T08:33:53;13.30;;;7.25;;
48209;SDS011;33999;52.252;9.616;2022-08-19T08:36:54;12.25;;;6.50;;
48209;SDS011;33999;52.252;9.616;2022-08-19T08:39:57;11.65;;;5.90;;
48209;SDS011;33999;52.252;9.616;2022-08-19T08:49:51;7.22;;;4.28;;
48209;SDS011;33999;52.252;9.616;2022-08-19T08:52:57;7.25;;;3.38;;
48209;SDS011;33999;52.252;9.616;2022-08-19T08:56:00;9.80;;;4.20;;
48209;SDS011;33999;52.252;9.616;2022-08-19T08:59:05;8.20;;;3.92;;
48209;SDS011;33999;52.252;9.616;2022-08-19T09:02:21;7.50;;;3.45;;
48209;SDS011;33999;52.252;9.616;2022-08-19T09:05:23;7.85;;;3.13;;
48209;SDS011;33999;52.252;9.616;2022-08-19T09:08:51;6.70;;;3.17;;
48209;SDS011;33999;52.252;9.616;2022-08-19T09:12:19;7.85;;;2.97;;
48209;SDS011;33999;52.252;9.616;2022-08-19T09:15:40;7.63;;;3.10;;
48209;SDS011;33999;52.252;9.616;2022-08-19T09:18:49;6.50;;;2.70;;
48209;SDS011;33999;52.252;9.616;2022-08-19T09:21:54;9.40;;;3.20;;
48209;SDS011;33999;52.252;9.616;2022-08-19T09:24:57;17.75;;;5.18;;
48209;SDS011;33999;52.252;9.616;2022-08-19T09:27:59;7.50;;;3.03;;
48209;SDS011;33999;52.252;9.616;2022-08-19T09:31:13;6.60;;;2.70;;
48209;SDS011;33999;52.252;9.616;2022-08-19T09:34:21;7.38;;;3.05;;
48209;SDS011;33999;52.252;9.616;2022-08-19T09:37:23;5.85;;;2.47;;
48209;SDS011;33999;52.252;9.616;2022-08-19T09:40:29;5.80;;;2.22;;
48209;SDS011;33999;52.252;9.616;2022-08-19T09:43:38;4.57;;;2.30;;
48209;SDS011;33999;52.252;9.616;2022-08-19T09:46:48;5.75;;;2.28;;
48209;SDS011;33999;52.252;9.616;2022-08-19T09:49:50;6.13;;;2.33;;
48209;SDS011;33999;52.252;9.616;2022-08-19T09:52:52;5.75;;;2.20;;
48209;SDS011;33999;52.252;9.616;2022-08-19T09:55:58;5.22;;;2.03;;
48209;SDS011;33999;52.252;9.616;2022-08-19T09:59:00;5.00;;;2.10;;
48209;SDS011;33999;52.252;9.616;2022-08-19T10:02:04;4.82;;;2.30;;
48209;SDS011;33999;52.252;9.616;2022-08-19T10:05:11;4.95;;;2.00;;
48209;SDS011;33999;52.252;9.616;2022-08-19T10:08:32;4.70;;;1.60;;
48209;SDS011;33999;52.252;9.616;2022-08-19T10:11:38;4.53;;;1.65;;
48209;SDS011;33999;52.252;9.616;2022-08-19T10:14:54;5.03;;;1.60;;
48209;SDS011;33999;52.252;9.616;2022-08-19T10:17:56;2.92;;;1.40;;
48209;SDS011;33999;52.252;9.616;2022-08-19T10:21:10;3.22;;;1.42;;
48209;SDS011;33999;52.252;9.616;2022-08-19T10:24:16;3.72;;;1.60;;
48209;SDS011;33999;52.252;9.616;2022-08-19T10:27:18;5.30;;;1.63;;
48209;SDS011;33999;52.252;9.616;2022-08-19T10:30:20;2.95;;;1.48;;
48209;SDS011;33999;52.252;9.616;2022-08-19T10:33:25;2.80;;;1.40;;
48209;SDS011;33999;52.252;9.616;2022-08-19T10:36:46;4.38;;;1.60;;
48209;SDS011;33999;52.252;9.616;2022-08-19T10:39:56;5.18;;;1.60;;
48209;SDS011;33999;52.252;9.616;2022-08-19T10:42:59;3.28;;;1.25;;
48209;SDS011;33999;52.252;9.616;2022-08-19T10:46:01;3.78;;;1.42;;
48209;SDS011;33999;52.252;9.616;2022-08-19T10:49:04;2.90;;;1.45;;
48209;SDS011;33999;52.252;9.616;2022-08-19T10:52:06;3.47;;;1.50;;
48209;SDS011;33999;52.252;9.616;2022-08-19T10:55:32;3.20;;;1.40;;
48209;SDS011;33999;52.252;9.616;2022-08-19T10:58:53;3.65;;;1.30;;
48209;SDS011;33999;52.252;9.616;2022-08-19T11:01:58;3.00;;;1.30;;
48209;SDS011;33999;52.252;9.616;2022-08-19T11:05:02;3.13;;;1.50;;
48209;SDS011;33999;52.252;9.616;2022-08-19T11:08:14;3.30;;;1.40;;
48209;SDS011;33999;52.252;9.616;2022-08-19T11:11:24;4.15;;;1.30;;
48209;SDS011;33999;52.252;9.616;2022-08-19T11:14:25;4.18;;;1.35;;
48209;SDS011;33999;52.252;9.616;2022-08-19T11:17:32;2.63;;;1.15;;
48209;SDS011;33999;52.252;9.616;2022-08-19T11:20:34;3.80;;;1.20;;
48209;SDS011;33999;52.252;9.616;2022-08-19T11:23:35;3.38;;;1.30;;
48209;SDS011;33999;52.252;9.616;2022-08-19T11:26:38;3.35;;;1.40;;
48209;SDS011;33999;52.252;9.616;2022-08-19T11:29:41;4.30;;;1.40;;
48209;SDS011;33999;52.252;9.616;2022-08-19T11:32:42;5.53;;;1.40;;
48209;SDS011;33999;52.252;9.616;2022-08-19T11:35:49;3.40;;;1.38;;
48209;SDS011;33999;52.252;9.616;2022-08-19T11:38:51;5.57;;;1.40;;
48209;SDS011;33999;52.252;9.616;2022-08-19T11:41:53;3.45;;;1.40;;
48209;SDS011;33999;52.252;9.616;2022-08-19T11:44:55;3.67;;;1.60;;
48209;SDS011;33999;52.252;9.616;2022-08-19T11:47:57;4.03;;;1.40;;
48209;SDS011;33999;52.252;9.616;2022-08-19T11:50:59;3.00;;;1.40;;
48209;SDS011;33999;52.252;9.616;2022-08-19T11:54:06;3.20;;;1.50;;
48209;SDS011;33999;52.252;9.616;2022-08-19T11:57:07;7.07;;;1.40;;
48209;SDS011;33999;52.252;9.616;2022-08-19T12:00:09;3.58;;;1.50;;
48209;SDS011;33999;52.252;9.616;2022-08-19T12:03:14;3.17;;;1.48;;
48209;SDS011;33999;52.252;9.616;2022-08-19T12:06:21;4.20;;;1.60;;
48209;SDS011;33999;52.252;9.616;2022-08-19T12:09:26;9.55;;;2.28;;
48209;SDS011;33999;52.252;9.616;2022-08-19T12:12:31;4.47;;;1.63;;
48209;SDS011;33999;52.252;9.616;2022-08-19T12:15:36;2.65;;;1.65;;
48209;SDS011;33999;52.252;9.616;2022-08-19T12:18:39;4.78;;;1.60;;
48209;SDS011;33999;52.252;9.616;2022-08-19T12:21:44;4.18;;;1.50;;
48209;SDS011;33999;52.252;9.616;2022-08-19T12:24:46;7.20;;;1.50;;
48209;SDS011;33999;52.252;9.616;2022-08-19T12:27:47;2.90;;;1.50;;
48209;SDS011;33999;52.252;9.616;2022-08-19T12:30:58;3.95;;;1.48;;
48209;SDS011;33999;52.252;9.616;2022-08-19T12:33:59;3.83;;;1.60;;
48209;SDS011;33999;52.252;9.616;2022-08-19T12:37:04;4.47;;;1.70;;
48209;SDS011;33999;52.252;9.616;2022-08-19T12:40:07;4.63;;;1.88;;
48209;SDS011;33999;52.252;9.616;2022-08-19T12:43:09;3.88;;;1.63;;
48209;SDS011;33999;52.252;9.616;2022-08-19T12:46:12;5.88;;;1.92;;
48209;SDS011;33999;52.252;9.616;2022-08-19T12:49:17;4.85;;;2.00;;
48209;SDS011;33999;52.252;9.616;2022-08-19T12:52:38;7.25;;;4.28;;
48209;SDS011;33999;52.252;9.616;2022-08-19T12:55:43;4.03;;;2.00;;
48209;SDS011;33999;52.252;9.616;2022-08-19T12:58:45;8.27;;;2.60;;
48209;SDS011;33999;52.252;9.616;2022-08-19T13:04:53;9.57;;;3.47;;
48209;SDS011;33999;52.252;9.616;2022-08-19T13:07:55;5.63;;;2.20;;
48209;SDS011;33999;52.252;9.616;2022-08-19T13:11:07;5.72;;;3.75;;
48209;SDS011;33999;52.252;9.616;2022-08-19T13:14:12;7.15;;;3.45;;
48209;SDS011;33999;52.252;9.616;2022-08-19T13:17:14;3.83;;;1.90;;
48209;SDS011;33999;52.252;9.616;2022-08-19T13:20:17;3.80;;;1.60;;
48209;SDS011;33999;52.252;9.616;2022-08-19T13:23:21;3.95;;;2.00;;
48209;SDS011;33999;52.252;9.616;2022-08-19T13:26:23;4.32;;;1.40;;
48209;SDS011;33999;52.252;9.616;2022-08-19T13:29:24;3.92;;;1.65;;
48209;SDS011;33999;52.252;9.616;2022-08-19T13:32:45;4.25;;;2.05;;
48209;SDS011;33999;52.252;9.616;2022-08-19T13:36:05;3.17;;;1.63;;
48209;SDS011;33999;52.252;9.616;2022-08-19T13:39:09;4.40;;;1.60;;
48209;SDS011;33999;52.252;9.616;2022-08-19T13:42:10;4.82;;;1.40;;
48209;SDS011;33999;52.252;9.616;2022-08-19T13:45:15;3.42;;;1.50;;
48209;SDS011;33999;52.252;9.616;2022-08-19T13:48:19;4.28;;;1.50;;
48209;SDS011;33999;52.252;9.616;2022-08-19T13:51:21;2.58;;;1.00;;
48209;SDS011;33999;52.252;9.616;2022-08-19T13:54:23;2.97;;;1.10;;
48209;SDS011;33999;52.252;9.616;2022-08-19T13:57:24;3.50;;;1.55;;
48209;SDS011;33999;52.252;9.616;2022-08-19T14:00:29;23.25;;;14.82;;
48209;SDS011;33999;52.252;9.616;2022-08-19T14:03:33;10.95;;;6.43;;
48209;SDS011;33999;52.252;9.616;2022-08-19T14:06:35;8.07;;;3.90;;
48209;SDS011;33999;52.252;9.616;2022-08-19T14:09:37;5.63;;;3.00;;
48209;SDS011;33999;52.252;9.616;2022-08-19T14:12:39;4.70;;;1.60;;
48209;SDS011;33999;52.252;9.616;2022-08-19T14:15:41;3.15;;;1.10;;
48209;SDS011;33999;52.252;9.616;2022-08-19T14:18:43;3.20;;;1.48;;
48209;SDS011;33999;52.252;9.616;2022-08-19T14:21:46;7.10;;;1.95;;
48209;SDS011;33999;52.252;9.616;2022-08-19T14:24:48;2.72;;;1.15;;
48209;SDS011;33999;52.252;9.616;2022-08-19T14:27:51;10.70;;;1.50;;
48209;SDS011;33999;52.252;9.616;2022-08-19T14:30:53;3.97;;;1.25;;
48209;SDS011;33999;52.252;9.616;2022-08-19T14:33:56;3.22;;;1.20;;
48209;SDS011;33999;52.252;9.616;2022-08-19T14:36:58;2.95;;;1.20;;
48209;SDS011;33999;52.252;9.616;2022-08-19T14:40:03;4.30;;;1.40;;
48209;SDS011;33999;52.252;9.616;2022-08-19T14:43:05;3.08;;;1.20;;
48209;SDS011;33999;52.252;9.616;2022-08-19T14:46:07;4.25;;;1.17;;
48209;SDS011;33999;52.252;9.616;2022-08-19T14:49:11;3.55;;;1.35;;
48209;SDS011;33999;52.252;9.616;2022-08-19T14:52:13;2.85;;;1.40;;
48209;SDS011;33999;52.252;9.616;2022-08-19T14:55:15;3.35;;;1.20;;
48209;SDS011;33999;52.252;9.616;2022-08-19T14:58:18;2.20;;;1.10;;
48209;SDS011;33999;52.252;9.616;2022-08-19T15:01:30;5.03;;;1.38;;
48209;SDS011;33999;52.252;9.616;2022-08-19T15:04:32;2.65;;;1.10;;
48209;SDS011;33999;52.252;9.616;2022-08-19T15:07:34;4.82;;;1.30;;
48209;SDS011;33999;52.252;9.616;2022-08-19T15:10:37;3.05;;;1.30;;
48209;SDS011;33999;52.252;9.616;2022-08-19T15:13:40;2.00;;;1.08;;
48209;SDS011;33999;52.252;9.616;2022-08-19T15:16:42;2.38;;;1.10;;
48209;SDS011;33999;52.252;9.616;2022-08-19T15:19:44;3.30;;;1.13;;
48209;SDS011;33999;52.252;9.616;2022-08-19T15:22:46;4.07;;;1.10;;
48209;SDS011;33999;52.252;9.616;2022-08-19T15:25:48;1.98;;;1.00;;
48209;SDS011;33999;52.252;9.616;2022-08-19T15:31:56;3.42;;;1.10;;
48209;SDS011;33999;52.252;9.616;2022-08-19T15:34:59;2.78;;;0.98;;
48209;SDS011;33999;52.252;9.616;2022-08-19T15:38:04;4.28;;;1.30;;
48209;SDS011;33999;52.252;9.616;2022-08-19T15:41:13;5.25;;;1.50;;
48209;SDS011;33999;52.252;9.616;2022-08-19T15:44:37;2.30;;;1.17;;
48209;SDS011;33999;52.252;9.616;2022-08-19T15:47:39;3.55;;;1.10;;
48209;SDS011;33999;52.252;9.616;2022-08-19T15:50:41;4.78;;;1.20;;
48209;SDS011;33999;52.252;9.616;2022-08-19T15:53:42;2.72;;;1.10;;
48209;SDS011;33999;52.252;9.616;2022-08-19T15:56:44;3.03;;;1.30;;
48209;SDS011;33999;52.252;9.616;2022-08-19T16:00:05;3.15;;;1.30;;
48209;SDS011;33999;52.252;9.616;2022-08-19T16:03:27;3.20;;;1.10;;
48209;SDS011;33999;52.252;9.616;2022-08-19T16:06:49;3.55;;;1.10;;
48209;SDS011;33999;52.252;9.616;2022-08-19T16:09:55;4.60;;;1.00;;
48209;SDS011;33999;52.252;9.616;2022-08-19T16:12:57;2.92;;;1.10;;
48209;SDS011;33999;52.252;9.616;2022-08-19T16:15:59;2.20;;;1.00;;
48209;SDS011;33999;52.252;9.616;2022-08-19T16:19:02;3.47;;;1.23;;
48209;SDS011;33999;52.252;9.616;2022-08-19T16:22:12;3.17;;;1.10;;
48209;SDS011;33999;52.252;9.616;2022-08-19T16:25:14;3.78;;;1.30;;
48209;SDS011;33999;52.252;9.616;2022-08-19T16:28:16;3.67;;;1.10;;
48209;SDS011;33999;52.252;9.616;2022-08-19T16:31:18;4.63;;;1.30;;
48209;SDS011;33999;52.252;9.616;2022-08-19T16:34:19;3.83;;;1.20;;
48209;SDS011;33999;52.252;9.616;2022-08-19T16:37:22;4.15;;;1.30;;
48209;SDS011;33999;52.252;9.616;2022-08-19T16:40:24;5.97;;;1.13;;
48209;SDS011;33999;52.252;9.616;2022-08-19T16:43:26;3.92;;;1.40;;
48209;SDS011;33999;52.252;9.616;2022-08-19T16:46:30;4.37;;;1.30;;
48209;SDS011;33999;52.252;9.616;2022-08-19T16:49:33;3.42;;;1.30;;
48209;SDS011;33999;52.252;9.616;2022-08-19T16:52:55;4.63;;;1.13;;
48209;SDS011;33999;52.252;9.616;2022-08-19T16:55:58;3.75;;;1.27;;
48209;SDS011;33999;52.252;9.616;2022-08-19T16:59:01;1.75;;;1.00;;
48209;SDS011;33999;52.252;9.616;2022-08-19T17:02:03;2.78;;;1.10;;
48209;SDS011;33999;52.252;9.616;2022-08-19T17:05:07;3.25;;;1.40;;
48209;SDS011;33999;52.252;9.616;2022-08-19T17:08:10;2.35;;;1.17;;
48209;SDS011;33999;52.252;9.616;2022-08-19T17:11:12;3.22;;;1.10;;
48209;SDS011;33999;52.252;9.616;2022-08-19T17:14:19;3.65;;;1.23;;
48209;SDS011;33999;52.252;9.616;2022-08-19T17:17:22;2.08;;;1.05;;
48209;SDS011;33999;52.252;9.616;2022-08-19T17:20:29;2.55;;;1.20;;
48209;SDS011;33999;52.252;9.616;2022-08-19T17:23:32;2.30;;;1.10;;
48209;SDS011;33999;52.252;9.616;2022-08-19T17:26:44;2.45;;;1.30;;
48209;SDS011;33999;52.252;9.616;2022-08-19T17:29:46;2.65;;;1.35;;
48209;SDS011;33999;52.252;9.616;2022-08-19T17:32:47;4.07;;;1.40;;
48209;SDS011;33999;52.252;9.616;2022-08-19T17:35:49;2.25;;;1.10;;
48209;SDS011;33999;52.252;9.616;2022-08-19T17:38:52;2.28;;;1.10;;
48209;SDS011;33999;52.252;9.616;2022-08-19T17:41:55;3.13;;;1.23;;
48209;SDS011;33999;52.252;9.616;2022-08-19T17:45:03;3.13;;;1.20;;
48209;SDS011;33999;52.252;9.616;2022-08-19T17:48:09;2.85;;;1.08;;
48209;SDS011;33999;52.252;9.616;2022-08-19T17:51:15;2.42;;;1.20;;
48209;SDS011;33999;52.252;9.616;2022-08-19T17:54:22;3.08;;;1.10;;
48209;SDS011;33999;52.252;9.616;2022-08-19T17:57:34;2.95;;;1.20;;
48209;SDS011;33999;52.252;9.616;2022-08-19T18:00:35;2.55;;;1.15;;
48209;SDS011;33999;52.252;9.616;2022-08-19T18:03:53;2.13;;;1.10;;
48209;SDS011;33999;52.252;9.616;2022-08-19T18:06:55;2.38;;;1.13;;
48209;SDS011;33999;52.252;9.616;2022-08-19T18:09:57;2.03;;;1.00;;
48209;SDS011;33999;52.252;9.616;2022-08-19T18:13:02;5.07;;;1.20;;
48209;SDS011;33999;52.252;9.616;2022-08-19T18:16:18;3.25;;;1.17;;
48209;SDS011;33999;52.252;9.616;2022-08-19T18:19:22;2.83;;;1.13;;
48209;SDS011;33999;52.252;9.616;2022-08-19T18:22:32;2.83;;;1.17;;
48209;SDS011;33999;52.252;9.616;2022-08-19T18:25:36;1.85;;;1.08;;
48209;SDS011;33999;52.252;9.616;2022-08-19T18:28:43;2.75;;;1.20;;
48209;SDS011;33999;52.252;9.616;2022-08-19T18:31:50;2.53;;;1.10;;
48209;SDS011;33999;52.252;9.616;2022-08-19T18:34:52;2.03;;;1.00;;
48209;SDS011;33999;52.252;9.616;2022-08-19T18:37:56;3.35;;;1.17;;
48209;SDS011;33999;52.252;9.616;2022-08-19T18:41:01;3.30;;;1.30;;
48209;SDS011;33999;52.252;9.616;2022-08-19T18:44:22;3.30;;;1.13;;